GHNTR YMHB-SCEL
Flight info
| Callsign | GHNTR |
|---|---|
| Flight time | N/A |
| Altitude | 37000 |
| Route | LAVOP DCT 46S150E 55S160E 60S170E 64S180E 68S150W 68S140W 67S130W 66S120W 64S110W 60S100W 55S090W/N0485F380 46S080W/N0474F370 36S070W/N0476F400 DCT EROLO EROLO2D |
| Aircraft | GLF6/M-SFGHIRWXY/S |
Departure
| Time | 2026-04-21 03:15 |
|---|---|
| Airport | Hobart International Airport (YMHB) |
Arrival
| Time | N/A |
|---|---|
| Airport | Comodoro Arturo Merino Benítez International Airport (SCEL) |
| Time | Latitude | Longitude | Altitude | Speed | Heading |
|---|---|---|---|---|---|
| 2026-04-21 03:10 | -42.83767 | 147.50696 | 30 ft | 0 kts | 317° |
| 2026-04-21 03:10 | -42.83752 | 147.50688 | 30 ft | 5 kts | 357° |
| 2026-04-21 03:11 | -42.83694 | 147.50717 | 30 ft | 11 kts | 343° |
| 2026-04-21 03:11 | -42.83634 | 147.50662 | 29 ft | 9 kts | 323° |
| 2026-04-21 03:11 | -42.83581 | 147.50670 | 28 ft | 9 kts | 41° |
| 2026-04-21 03:11 | -42.83511 | 147.50674 | 26 ft | 14 kts | 313° |
| 2026-04-21 03:12 | -42.83420 | 147.50551 | 22 ft | 21 kts | 334° |
| 2026-04-21 03:12 | -42.83315 | 147.50645 | 21 ft | 18 kts | 47° |
| 2026-04-21 03:12 | -42.83213 | 147.50648 | 21 ft | 17 kts | 314° |
| 2026-04-21 03:12 | -42.83126 | 147.50525 | 21 ft | 19 kts | 313° |
| 2026-04-21 03:13 | -42.83020 | 147.50374 | 23 ft | 25 kts | 313° |
| 2026-04-21 03:13 | -42.82926 | 147.50186 | 26 ft | 19 kts | 275° |
| 2026-04-21 03:13 | -42.82877 | 147.50066 | 26 ft | 9 kts | 332° |
| 2026-04-21 03:13 | -42.82856 | 147.50072 | 26 ft | 0 kts | 35° |
| 2026-04-21 03:14 | -42.82848 | 147.50079 | 26 ft | 6 kts | 37° |
| 2026-04-21 03:14 | -42.82862 | 147.50162 | 27 ft | 0 kts | 137° |
| 2026-04-21 03:14 | -42.82995 | 147.50339 | 25 ft | 63 kts | 135° |
| 2026-04-21 03:14 | -42.83477 | 147.50990 | 25 ft | 130 kts | 134° |
| 2026-04-21 03:15 | -42.84195 | 147.51898 | 451 ft | 145 kts | 134° |
| 2026-04-21 03:15 | -42.84951 | 147.52916 | 988 ft | 160 kts | 132° |
| 2026-04-21 03:15 | -42.85704 | 147.53925 | 1678 ft | 158 kts | 132° |
| 2026-04-21 03:15 | -42.86541 | 147.55087 | 1907 ft | 186 kts | 131° |
| 2026-04-21 03:16 | -42.87511 | 147.56445 | 2269 ft | 211 kts | 132° |
| 2026-04-21 03:16 | -42.88757 | 147.57539 | 2827 ft | 230 kts | 157° |
| 2026-04-21 03:16 | -42.90443 | 147.58128 | 3065 ft | 266 kts | 165° |
| 2026-04-21 03:16 | -42.92281 | 147.58661 | 3886 ft | 274 kts | 165° |
| 2026-04-21 03:17 | -42.94134 | 147.59242 | 4916 ft | 275 kts | 165° |
| 2026-04-21 03:17 | -42.95989 | 147.59824 | 5827 ft | 277 kts | 165° |
| 2026-04-21 03:17 | -42.97860 | 147.60413 | 6637 ft | 282 kts | 165° |
| 2026-04-21 03:17 | -42.99778 | 147.61021 | 7451 ft | 286 kts | 165° |
| 2026-04-21 03:18 | -43.01693 | 147.61696 | 8268 ft | 288 kts | 155° |
| 2026-04-21 03:18 | -43.03477 | 147.62972 | 9108 ft | 291 kts | 149° |
| 2026-04-21 03:18 | -43.05233 | 147.64287 | 9967 ft | 294 kts | 149° |
| 2026-04-21 03:18 | -43.07078 | 147.65677 | 10331 ft | 318 kts | 150° |
| 2026-04-21 03:19 | -43.09095 | 147.67198 | 10407 ft | 349 kts | 150° |
| 2026-04-21 03:19 | -43.11278 | 147.68846 | 11071 ft | 357 kts | 150° |
| 2026-04-21 03:19 | -43.13425 | 147.70470 | 11968 ft | 358 kts | 150° |
| 2026-04-21 03:19 | -43.15614 | 147.72125 | 12639 ft | 364 kts | 150° |
| 2026-04-21 03:20 | -43.17839 | 147.73810 | 13418 ft | 366 kts | 150° |
| 2026-04-21 03:20 | -43.20042 | 147.75481 | 14139 ft | 370 kts | 150° |
| 2026-04-21 03:20 | -43.22303 | 147.77197 | 14874 ft | 374 kts | 150° |
| 2026-04-21 03:20 | -43.24586 | 147.78932 | 15613 ft | 377 kts | 150° |
| 2026-04-21 03:21 | -43.26882 | 147.80676 | 16346 ft | 381 kts | 150° |
| 2026-04-21 03:21 | -43.29189 | 147.82433 | 17060 ft | 385 kts | 150° |
| 2026-04-21 03:21 | -43.31536 | 147.84221 | 17763 ft | 388 kts | 150° |
| 2026-04-21 03:21 | -43.33915 | 147.86034 | 18472 ft | 392 kts | 150° |
| 2026-04-21 03:22 | -43.36283 | 147.87840 | 19169 ft | 396 kts | 150° |
| 2026-04-21 03:22 | -43.38712 | 147.89696 | 19878 ft | 400 kts | 150° |
| 2026-04-21 03:22 | -43.41129 | 147.91544 | 20588 ft | 404 kts | 150° |
| 2026-04-21 03:22 | -43.43594 | 147.93430 | 21294 ft | 407 kts | 151° |
| 2026-04-21 03:23 | -43.46091 | 147.95342 | 21972 ft | 411 kts | 151° |
| 2026-04-21 03:23 | -43.48581 | 147.97250 | 22630 ft | 415 kts | 151° |
| 2026-04-21 03:23 | -43.51122 | 147.99200 | 23286 ft | 419 kts | 151° |
| 2026-04-21 03:23 | -43.53671 | 148.01158 | 23932 ft | 423 kts | 151° |
| 2026-04-21 03:24 | -43.56255 | 148.03145 | 24598 ft | 426 kts | 152° |
| 2026-04-21 03:24 | -43.58843 | 148.05136 | 25265 ft | 430 kts | 152° |
| 2026-04-21 03:24 | -43.61459 | 148.07150 | 25914 ft | 434 kts | 152° |
| 2026-04-21 03:24 | -43.64103 | 148.09190 | 26552 ft | 437 kts | 152° |
| 2026-04-21 03:25 | -43.66758 | 148.11238 | 27168 ft | 440 kts | 152° |
| 2026-04-21 03:25 | -43.69427 | 148.13301 | 27784 ft | 443 kts | 152° |
| 2026-04-21 03:25 | -43.72126 | 148.15390 | 28387 ft | 446 kts | 152° |
| 2026-04-21 03:25 | -43.74863 | 148.17509 | 28984 ft | 449 kts | 153° |
| 2026-04-21 03:26 | -43.77608 | 148.19636 | 29601 ft | 452 kts | 153° |
| 2026-04-21 03:26 | -43.80359 | 148.21770 | 30185 ft | 456 kts | 153° |
| 2026-04-21 03:26 | -43.83105 | 148.23904 | 30699 ft | 454 kts | 153° |
| 2026-04-21 03:26 | -43.85255 | 148.25575 | 30960 ft | 458 kts | 153° |
| 2026-04-21 03:27 | -43.88046 | 148.27748 | 31429 ft | 462 kts | 153° |
| 2026-04-21 03:27 | -43.90833 | 148.29919 | 32209 ft | 456 kts | 153° |
| 2026-04-21 03:27 | -43.93576 | 148.32059 | 32828 ft | 454 kts | 153° |
| 2026-04-21 03:27 | -43.96313 | 148.34195 | 33393 ft | 453 kts | 153° |
| 2026-04-21 03:28 | -43.99046 | 148.36331 | 34010 ft | 451 kts | 153° |
| 2026-04-21 03:28 | -44.01772 | 148.38464 | 34670 ft | 448 kts | 154° |
| 2026-04-21 03:28 | -44.04462 | 148.40572 | 35330 ft | 444 kts | 154° |
| 2026-04-21 03:28 | -44.07119 | 148.42656 | 35975 ft | 441 kts | 154° |
| 2026-04-21 03:29 | -44.09804 | 148.44763 | 36597 ft | 438 kts | 154° |
| 2026-04-21 03:29 | -44.12442 | 148.46835 | 37128 ft | 437 kts | 154° |
| 2026-04-21 03:29 | -44.15066 | 148.48898 | 37510 ft | 441 kts | 154° |
| 2026-04-21 03:29 | -44.17783 | 148.51036 | 37559 ft | 454 kts | 154° |
| 2026-04-21 03:30 | -44.23338 | 148.55418 | 37473 ft | 456 kts | 154° |
| 2026-04-21 03:30 | -44.28724 | 148.59677 | 37462 ft | 442 kts | 155° |
| 2026-04-21 03:31 | -44.34084 | 148.63921 | 37408 ft | 441 kts | 155° |
| 2026-04-21 03:31 | -44.39405 | 148.68143 | 37402 ft | 446 kts | 154° |
| 2026-04-21 03:32 | -44.44814 | 148.72446 | 37426 ft | 448 kts | 154° |
| 2026-04-21 03:32 | -44.50203 | 148.76743 | 37426 ft | 446 kts | 154° |
| 2026-04-21 03:33 | -44.55587 | 148.81043 | 37421 ft | 444 kts | 154° |
| 2026-04-21 03:33 | -44.60910 | 148.85304 | 37421 ft | 444 kts | 154° |
| 2026-04-21 03:34 | -44.66264 | 148.89598 | 37419 ft | 444 kts | 154° |
| 2026-04-21 03:34 | -44.71607 | 148.93893 | 37418 ft | 444 kts | 154° |
| 2026-04-21 03:35 | -44.76958 | 148.98206 | 37417 ft | 443 kts | 154° |
| 2026-04-21 03:35 | -44.82284 | 149.02506 | 37417 ft | 444 kts | 154° |
| 2026-04-21 03:36 | -44.87631 | 149.06833 | 37416 ft | 444 kts | 154° |
| 2026-04-21 03:36 | -44.92980 | 149.11169 | 37415 ft | 443 kts | 154° |
| 2026-04-21 03:37 | -44.98317 | 149.15508 | 37415 ft | 443 kts | 154° |
| 2026-04-21 03:37 | -45.03628 | 149.19833 | 37414 ft | 443 kts | 154° |
| 2026-04-21 03:38 | -45.08953 | 149.24179 | 37413 ft | 443 kts | 154° |
| 2026-04-21 03:38 | -45.14274 | 149.28531 | 37421 ft | 443 kts | 154° |
| 2026-04-21 03:39 | -45.19626 | 149.32919 | 37421 ft | 443 kts | 154° |
| 2026-04-21 03:39 | -45.24922 | 149.37271 | 37420 ft | 442 kts | 154° |
| 2026-04-21 03:40 | -45.30243 | 149.41652 | 37419 ft | 442 kts | 154° |
| 2026-04-21 03:40 | -45.35538 | 149.46021 | 37418 ft | 442 kts | 154° |
| 2026-04-21 03:41 | -45.40924 | 149.50473 | 37421 ft | 455 kts | 154° |
| 2026-04-21 03:41 | -45.46395 | 149.55009 | 37417 ft | 455 kts | 154° |
| 2026-04-21 03:42 | -45.51827 | 149.59521 | 37415 ft | 452 kts | 154° |
| 2026-04-21 03:42 | -45.57230 | 149.64021 | 37635 ft | 447 kts | 154° |
| 2026-04-21 03:43 | -45.59813 | 149.66182 | 38766 ft | 422 kts | 154° |
| 2026-04-21 03:43 | -45.62348 | 149.68294 | 39029 ft | 425 kts | 154° |
| 2026-04-21 03:43 | -45.64937 | 149.70454 | 39188 ft | 429 kts | 154° |
| 2026-04-21 03:43 | -45.67491 | 149.72592 | 39585 ft | 427 kts | 154° |
| 2026-04-21 03:44 | -45.70038 | 149.74725 | 39929 ft | 426 kts | 154° |
| 2026-04-21 03:44 | -45.72605 | 149.76878 | 40238 ft | 427 kts | 154° |
| 2026-04-21 03:44 | -45.75141 | 149.79007 | 40573 ft | 426 kts | 154° |
| 2026-04-21 03:44 | -45.77696 | 149.81154 | 40962 ft | 426 kts | 154° |
| 2026-04-21 03:45 | -45.80262 | 149.83311 | 41280 ft | 426 kts | 154° |
| 2026-04-21 03:45 | -45.82814 | 149.85458 | 41382 ft | 430 kts | 154° |
| 2026-04-21 03:45 | -45.88027 | 149.89854 | 41386 ft | 443 kts | 154° |
| 2026-04-21 03:46 | -45.93395 | 149.94392 | 41381 ft | 453 kts | 154° |
| 2026-04-21 03:46 | -45.98824 | 149.98993 | 41379 ft | 460 kts | 154° |
| 2026-04-21 03:47 | -46.04311 | 150.03793 | 41379 ft | 461 kts | 153° |
| 2026-04-21 03:47 | -46.09726 | 150.08581 | 41376 ft | 456 kts | 153° |
| 2026-04-21 03:48 | -46.15105 | 150.13347 | 41385 ft | 455 kts | 153° |
| 2026-04-21 03:48 | -46.20480 | 150.18120 | 41386 ft | 456 kts | 153° |
| 2026-04-21 03:49 | -46.25881 | 150.22926 | 41384 ft | 456 kts | 153° |
| 2026-04-21 03:49 | -46.31295 | 150.27757 | 41383 ft | 456 kts | 153° |
| 2026-04-21 03:50 | -46.36672 | 150.32565 | 41381 ft | 456 kts | 153° |
| 2026-04-21 03:50 | -46.42045 | 150.37383 | 41381 ft | 456 kts | 153° |
| 2026-04-21 03:51 | -46.47416 | 150.42209 | 41379 ft | 456 kts | 153° |
| 2026-04-21 03:51 | -46.52790 | 150.47049 | 41378 ft | 455 kts | 153° |
| 2026-04-21 03:52 | -46.58161 | 150.51897 | 41379 ft | 455 kts | 153° |
| 2026-04-21 03:52 | -46.63486 | 150.56715 | 41382 ft | 456 kts | 153° |
| 2026-04-21 03:53 | -46.68866 | 150.61595 | 41384 ft | 456 kts | 153° |
| 2026-04-21 03:53 | -46.74245 | 150.66486 | 41379 ft | 456 kts | 153° |
| 2026-04-21 03:54 | -46.79581 | 150.71347 | 41378 ft | 456 kts | 153° |
| 2026-04-21 03:54 | -46.84956 | 150.76257 | 41378 ft | 456 kts | 153° |
| 2026-04-21 03:55 | -46.90309 | 150.81160 | 41378 ft | 457 kts | 153° |
| 2026-04-21 03:55 | -46.95697 | 150.86105 | 41377 ft | 456 kts | 153° |
| 2026-04-21 03:56 | -47.01045 | 150.91025 | 41377 ft | 456 kts | 153° |
| 2026-04-21 03:56 | -47.06389 | 150.95955 | 41376 ft | 456 kts | 153° |
| 2026-04-21 03:57 | -47.11767 | 151.00926 | 41386 ft | 456 kts | 153° |
| 2026-04-21 03:57 | -47.17105 | 151.05873 | 41387 ft | 456 kts | 153° |
| 2026-04-21 03:58 | -47.22450 | 151.10838 | 41385 ft | 455 kts | 153° |
| 2026-04-21 03:58 | -47.27766 | 151.15788 | 41385 ft | 455 kts | 153° |
| 2026-04-21 03:59 | -47.33109 | 151.20778 | 41384 ft | 455 kts | 153° |
| 2026-04-21 04:00 | -47.41122 | 151.28281 | 41382 ft | 455 kts | 153° |
| 2026-04-21 04:00 | -47.46430 | 151.33264 | 41381 ft | 454 kts | 153° |
| 2026-04-21 04:01 | -47.51751 | 151.38274 | 41380 ft | 454 kts | 153° |
| 2026-04-21 04:01 | -47.57062 | 151.43286 | 41376 ft | 454 kts | 153° |
| 2026-04-21 04:02 | -47.62377 | 151.48315 | 41371 ft | 454 kts | 153° |
| 2026-04-21 04:02 | -47.67650 | 151.53314 | 41369 ft | 454 kts | 153° |
| 2026-04-21 04:03 | -47.72971 | 151.58374 | 41368 ft | 453 kts | 153° |
| 2026-04-21 04:03 | -47.78242 | 151.63397 | 41367 ft | 453 kts | 153° |
| 2026-04-21 04:04 | -47.83534 | 151.68454 | 41363 ft | 453 kts | 152° |
| 2026-04-21 04:04 | -47.88824 | 151.73518 | 41361 ft | 453 kts | 152° |
| 2026-04-21 04:05 | -47.94104 | 151.78589 | 41360 ft | 453 kts | 152° |
| 2026-04-21 04:05 | -47.99369 | 151.83656 | 41359 ft | 452 kts | 152° |
| 2026-04-21 04:06 | -48.04622 | 151.88724 | 41358 ft | 453 kts | 152° |
| 2026-04-21 04:06 | -48.09915 | 151.93843 | 41347 ft | 453 kts | 152° |
| 2026-04-21 04:07 | -48.15164 | 151.98933 | 41347 ft | 453 kts | 152° |
| 2026-04-21 04:07 | -48.20447 | 152.04068 | 41346 ft | 453 kts | 152° |
| 2026-04-21 04:08 | -48.25695 | 152.09181 | 41344 ft | 452 kts | 152° |
| 2026-04-21 04:08 | -48.30980 | 152.14343 | 41343 ft | 452 kts | 152° |
| 2026-04-21 04:09 | -48.36232 | 152.19488 | 41342 ft | 452 kts | 152° |
| 2026-04-21 04:09 | -48.41540 | 152.24699 | 41340 ft | 452 kts | 152° |
| 2026-04-21 04:10 | -48.46772 | 152.29849 | 41339 ft | 451 kts | 152° |
| 2026-04-21 04:10 | -48.52013 | 152.35020 | 41338 ft | 451 kts | 152° |
| 2026-04-21 04:11 | -48.57238 | 152.40190 | 41338 ft | 452 kts | 152° |
| 2026-04-21 04:11 | -48.62523 | 152.45430 | 41335 ft | 452 kts | 152° |
| 2026-04-21 04:12 | -48.67741 | 152.50618 | 41333 ft | 451 kts | 152° |
| 2026-04-21 04:12 | -48.72979 | 152.55839 | 41332 ft | 451 kts | 152° |
| 2026-04-21 04:13 | -48.78209 | 152.61064 | 41330 ft | 451 kts | 152° |
| 2026-04-21 04:13 | -48.83425 | 152.66290 | 41322 ft | 452 kts | 152° |
| 2026-04-21 04:14 | -48.88668 | 152.71558 | 41315 ft | 452 kts | 152° |
| 2026-04-21 04:14 | -48.93879 | 152.76804 | 41314 ft | 452 kts | 152° |
| 2026-04-21 04:15 | -48.99092 | 152.82065 | 41313 ft | 451 kts | 152° |
| 2026-04-21 04:15 | -49.04335 | 152.87372 | 41311 ft | 452 kts | 152° |
| 2026-04-21 04:16 | -49.09546 | 152.92659 | 41309 ft | 452 kts | 152° |
| 2026-04-21 04:16 | -49.14833 | 152.98036 | 41318 ft | 452 kts | 152° |
| 2026-04-21 04:17 | -49.20077 | 153.03386 | 41317 ft | 452 kts | 152° |
| 2026-04-21 04:17 | -49.25291 | 153.08717 | 41315 ft | 451 kts | 152° |
| 2026-04-21 04:18 | -49.30494 | 153.14052 | 41314 ft | 452 kts | 152° |
| 2026-04-21 04:18 | -49.35717 | 153.19420 | 41312 ft | 452 kts | 152° |
| 2026-04-21 04:19 | -49.40931 | 153.24793 | 41310 ft | 452 kts | 152° |
| 2026-04-21 04:19 | -49.46140 | 153.30176 | 41309 ft | 452 kts | 152° |
| 2026-04-21 04:20 | -49.51340 | 153.35562 | 41306 ft | 452 kts | 152° |
| 2026-04-21 04:20 | -49.56537 | 153.40961 | 41306 ft | 452 kts | 152° |
| 2026-04-21 04:21 | -49.61743 | 153.46381 | 41303 ft | 452 kts | 152° |
| 2026-04-21 04:21 | -49.66936 | 153.51804 | 41302 ft | 452 kts | 152° |
| 2026-04-21 04:22 | -49.72123 | 153.57233 | 41300 ft | 452 kts | 152° |
| 2026-04-21 04:22 | -49.77333 | 153.62701 | 41299 ft | 452 kts | 152° |
| 2026-04-21 04:23 | -49.82491 | 153.68131 | 41292 ft | 452 kts | 151° |
| 2026-04-21 04:23 | -49.87693 | 153.73618 | 41292 ft | 453 kts | 151° |
| 2026-04-21 04:24 | -49.92900 | 153.79128 | 41290 ft | 453 kts | 151° |
| 2026-04-21 04:24 | -49.98073 | 153.84613 | 41289 ft | 453 kts | 151° |
| 2026-04-21 04:25 | -50.03274 | 153.90146 | 41288 ft | 453 kts | 151° |
| 2026-04-21 04:25 | -50.08440 | 153.95654 | 41286 ft | 453 kts | 151° |
| 2026-04-21 04:26 | -50.13599 | 154.01170 | 41299 ft | 453 kts | 151° |
| 2026-04-21 04:26 | -50.18806 | 154.06753 | 41296 ft | 453 kts | 151° |
| 2026-04-21 04:27 | -50.23959 | 154.12293 | 41295 ft | 453 kts | 151° |
| 2026-04-21 04:27 | -50.29138 | 154.17876 | 41293 ft | 453 kts | 151° |
| 2026-04-21 04:28 | -50.34312 | 154.23467 | 41292 ft | 453 kts | 151° |
| 2026-04-21 04:28 | -50.39447 | 154.29031 | 41291 ft | 453 kts | 151° |
| 2026-04-21 04:29 | -50.44614 | 154.34645 | 41289 ft | 453 kts | 151° |
| 2026-04-21 04:29 | -50.49761 | 154.40254 | 41288 ft | 453 kts | 151° |
| 2026-04-21 04:30 | -50.54929 | 154.45900 | 41286 ft | 453 kts | 151° |
| 2026-04-21 04:30 | -50.60071 | 154.51533 | 41285 ft | 453 kts | 151° |
| 2026-04-21 04:31 | -50.65249 | 154.57222 | 41283 ft | 453 kts | 151° |
| 2026-04-21 04:31 | -50.70374 | 154.62866 | 41281 ft | 453 kts | 151° |
| 2026-04-21 04:32 | -50.75549 | 154.68582 | 41275 ft | 454 kts | 150° |
| 2026-04-21 04:32 | -50.80704 | 154.74291 | 41274 ft | 454 kts | 150° |
| 2026-04-21 04:33 | -50.85877 | 154.80037 | 41272 ft | 453 kts | 150° |
| 2026-04-21 04:33 | -50.91009 | 154.85751 | 41271 ft | 454 kts | 151° |
| 2026-04-21 04:34 | -50.96174 | 154.91519 | 41269 ft | 454 kts | 151° |
| 2026-04-21 04:34 | -51.01311 | 154.97272 | 41267 ft | 454 kts | 151° |
| 2026-04-21 04:35 | -51.06455 | 155.03049 | 41265 ft | 454 kts | 151° |
| 2026-04-21 04:35 | -51.11573 | 155.08812 | 41275 ft | 454 kts | 151° |
| 2026-04-21 04:36 | -51.16680 | 155.14578 | 41276 ft | 454 kts | 151° |
| 2026-04-21 04:36 | -51.21825 | 155.20404 | 41273 ft | 454 kts | 151° |
| 2026-04-21 04:37 | -51.26965 | 155.26239 | 41272 ft | 455 kts | 151° |
| 2026-04-21 04:37 | -51.32120 | 155.32111 | 41270 ft | 455 kts | 151° |
| 2026-04-21 04:38 | -51.37244 | 155.37961 | 41268 ft | 455 kts | 151° |
| 2026-04-21 04:38 | -51.42384 | 155.43846 | 41267 ft | 455 kts | 151° |
| 2026-04-21 04:39 | -51.47496 | 155.49716 | 41265 ft | 455 kts | 151° |
| 2026-04-21 04:39 | -51.52644 | 155.55644 | 41264 ft | 455 kts | 151° |
| 2026-04-21 04:40 | -51.57789 | 155.61586 | 41262 ft | 456 kts | 151° |
| 2026-04-21 04:40 | -51.62909 | 155.67516 | 41255 ft | 456 kts | 150° |
| 2026-04-21 04:41 | -51.68064 | 155.73502 | 41255 ft | 457 kts | 150° |
| 2026-04-21 04:41 | -51.73193 | 155.79477 | 41254 ft | 458 kts | 150° |
| 2026-04-21 04:42 | -51.78326 | 155.85472 | 41253 ft | 457 kts | 150° |
| 2026-04-21 04:42 | -51.83494 | 155.91527 | 41252 ft | 458 kts | 150° |